KDET/DET METAR and TAF weather

Enter ICAO airport designator
Station Type Date Time Source
KDET METAR 2019/08/19 11:53 UTC NOAA

KDET 191153Z 00000KT 9SM CLR 20/20 A3001 RMK AO2 SLP160 70033 T02000200 10206 20194 53021


Station Type Date Time Source
KDET Decoded METAR 2019/08/19 11:53 UTC NOAA

Station name not available
Aug 19, 2019 - 07:53 AM EDT / 2019.08.19 1153 UTC
Wind: Calm:0
Visibility: 9 mile(s):0
Sky conditions: clear
Temperature: 68.0 F (20.0 C)
Dew Point: 68.0 F (20.0 C)
Relative Humidity: 100%
Pressure (altimeter): 30.01 in. Hg (1016 hPa)
Pressure tendency: 0.06 inches (2.1 hPa) higher than three hours ago
ob: KDET 191153Z 00000KT 9SM CLR 20/20 A3001 RMK AO2 SLP160 70033 T02000200 10206 20194 53021
cycle: 12

Station Type Date Time Source
KDET TAF 2019/08/19 12:22 UTC NOAA

TAF KDET 191120Z 1912/2012 22005KT P6SM SCT006
TEMPO 1912/1914 BKN006
FM191400 VRB04KT P6SM SCT015 BKN030
FM191600 VRB04KT P6SM BKN040
FM200200 VRB03KT P6SM SCT040

Example: see airport list